FDX1129 KEWR-KPHX
Flight info
| Callsign | FDX1129 |
|---|---|
| Flight time | N/A |
| Altitude | 30000 |
| Route | PARKE J6 HVQ Q68 RAMRD ARG/N0489F320 FSM IRW PNH J6 ZUN EAGUL6 |
| Aircraft | B77L/H-SDE1E2E3FGHIJ2J3J4J5M1RWXY/LB1D1 |
Departure
| Time | 2026-05-04 23:10 |
|---|---|
| Airport | Newark Liberty International Airport (KEWR) |
Arrival
| Time | N/A |
|---|---|
| Airport | Phoenix Sky Harbor International Airport (KPHX) |
| Time | Latitude | Longitude | Altitude | Speed | Heading |
|---|---|---|---|---|---|
| 2026-05-04 22:39 | 40.68045 | -74.18168 | 27 ft | 0 kts | 295° |
| 2026-05-04 22:57 | 40.68042 | -74.18158 | 34 ft | 1 kts | 297° |
| 2026-05-04 22:58 | 40.68038 | -74.18147 | 33 ft | 3 kts | 300° |
| 2026-05-04 22:58 | 40.68027 | -74.18124 | 34 ft | 3 kts | 306° |
| 2026-05-04 22:59 | 40.68017 | -74.18108 | 38 ft | 2 kts | 313° |
| 2026-05-04 22:59 | 40.68028 | -74.18119 | 32 ft | 3 kts | 323° |
| 2026-05-04 22:59 | 40.68011 | -74.18104 | 20 ft | 3 kts | 331° |
| 2026-05-04 22:59 | 40.68009 | -74.18102 | 21 ft | 0 kts | 332° |
| 2026-05-04 23:02 | 40.68017 | -74.18101 | 27 ft | 6 kts | 3° |
| 2026-05-04 23:02 | 40.68024 | -74.18099 | 27 ft | 0 kts | 13° |
| 2026-05-04 23:03 | 40.68025 | -74.18099 | 27 ft | 0 kts | 13° |
| 2026-05-04 23:03 | 40.68041 | -74.18093 | 27 ft | 7 kts | 18° |
| 2026-05-04 23:04 | 40.68110 | -74.18051 | 27 ft | 13 kts | 32° |
| 2026-05-04 23:04 | 40.68121 | -74.17950 | 27 ft | 15 kts | 126° |
| 2026-05-04 23:04 | 40.68064 | -74.17828 | 26 ft | 16 kts | 98° |
| 2026-05-04 23:04 | 40.68127 | -74.17736 | 26 ft | 14 kts | 27° |
| 2026-05-04 23:05 | 40.68223 | -74.17671 | 26 ft | 19 kts | 26° |
| 2026-05-04 23:05 | 40.68354 | -74.17590 | 27 ft | 18 kts | 25° |
| 2026-05-04 23:05 | 40.68375 | -74.17577 | 27 ft | 0 kts | 25° |
| 2026-05-04 23:05 | 40.68423 | -74.17545 | 27 ft | 15 kts | 27° |
| 2026-05-04 23:06 | 40.68516 | -74.17483 | 27 ft | 16 kts | 25° |
| 2026-05-04 23:06 | 40.68641 | -74.17406 | 28 ft | 24 kts | 25° |
| 2026-05-04 23:06 | 40.68809 | -74.17300 | 27 ft | 27 kts | 26° |
| 2026-05-04 23:06 | 40.68978 | -74.17192 | 32 ft | 27 kts | 26° |
| 2026-05-04 23:07 | 40.69143 | -74.17085 | 31 ft | 26 kts | 26° |
| 2026-05-04 23:07 | 40.69306 | -74.16982 | 26 ft | 26 kts | 25° |
| 2026-05-04 23:07 | 40.69469 | -74.16879 | 27 ft | 26 kts | 26° |
| 2026-05-04 23:07 | 40.69632 | -74.16775 | 26 ft | 26 kts | 26° |
| 2026-05-04 23:08 | 40.69794 | -74.16671 | 28 ft | 26 kts | 26° |
| 2026-05-04 23:08 | 40.69957 | -74.16568 | 28 ft | 25 kts | 26° |
| 2026-05-04 23:08 | 40.70051 | -74.16499 | 29 ft | 6 kts | 56° |
| 2026-05-04 23:08 | 40.70053 | -74.16495 | 30 ft | 0 kts | 59° |
| 2026-05-04 23:09 | 40.70055 | -74.16491 | 29 ft | 1 kts | 61° |
| 2026-05-04 23:09 | 40.70047 | -74.16392 | 29 ft | 17 kts | 139° |
| 2026-05-04 23:09 | 40.69960 | -74.16406 | 25 ft | 12 kts | 205° |
| 2026-05-04 23:09 | 40.69724 | -74.16555 | 29 ft | 71 kts | 206° |
| 2026-05-04 23:10 | 40.69083 | -74.16964 | 26 ft | 131 kts | 206° |
| 2026-05-04 23:10 | 40.68124 | -74.17583 | 115 ft | 167 kts | 203° |
| 2026-05-04 23:10 | 40.67012 | -74.17911 | 646 ft | 169 kts | 181° |
| 2026-05-04 23:10 | 40.65824 | -74.17857 | 1147 ft | 168 kts | 191° |
| 2026-05-04 23:11 | 40.64759 | -74.18501 | 1545 ft | 173 kts | 229° |
| 2026-05-04 23:11 | 40.64115 | -74.19793 | 2131 ft | 168 kts | 220° |
| 2026-05-04 23:11 | 40.63052 | -74.20609 | 2345 ft | 189 kts | 211° |
| 2026-05-04 23:11 | 40.61810 | -74.21485 | 2542 ft | 215 kts | 204° |
| 2026-05-04 23:12 | 40.60264 | -74.21882 | 2889 ft | 241 kts | 179° |